Time;durP1;ratioP1;P1;durP2;ratioP2;P2;SDS_P1;SDS_P2;PMS_P1;PMS_P2;Temp;Humidity;BMP_temperature;BMP_pressure;BME280_temperature;BME280_humidity;BME280_pressure;Samples;Min_cycle;Max_cycle;Signal;HPM_P1;HPM_P2
2022/07/18 00:01:08;;;;;;;6.55;2.53;;;;;;;24.85;39.79;99888.59;5075797;28;20327;-56
2022/07/18 00:03:35;;;;;;;3.47;2.80;;;;;;;24.81;40.16;99889.81;5076252;28;20687;-58
2022/07/18 00:06:02;;;;;;;5.30;3.00;;;;;;;24.83;40.01;99891.34;5075678;28;20196;-56
2022/07/18 00:08:29;;;;;;;3.25;2.50;;;;;;;24.82;40.48;99896.81;5075459;28;20231;-58
2022/07/18 00:10:57;;;;;;;2.67;2.47;;;;;;;24.81;40.60;99897.78;5075771;28;20201;-58
2022/07/18 00:13:24;;;;;;;3.08;2.80;;;;;;;24.75;40.17;99899.13;5075782;28;20583;-54
2022/07/18 00:15:51;;;;;;;3.30;3.10;;;;;;;24.66;40.09;99894.56;5073357;28;20239;-55
2022/07/18 00:18:18;;;;;;;3.20;2.90;;;;;;;24.65;40.15;99898.19;5075013;28;20609;-58
2022/07/18 00:20:45;;;;;;;3.25;2.92;;;;;;;24.55;39.99;99899.91;5075298;28;20291;-57
2022/07/18 00:23:12;;;;;;;3.05;2.85;;;;;;;24.55;39.83;99903.38;5075777;28;20714;-58
2022/07/18 00:25:38;;;;;;;3.58;2.65;;;;;;;24.50;39.04;99913.53;5075558;28;20585;-59
2022/07/18 00:28:07;;;;;;;2.40;2.30;;;;;;;24.45;39.44;99905.09;5072886;28;20207;-58
2022/07/18 00:30:34;;;;;;;5.00;2.58;;;;;;;24.44;38.41;99906.06;5072328;28;20669;-58
2022/07/18 00:33:01;;;;;;;4.93;2.53;;;;;;;24.35;38.43;99904.16;5072174;28;20192;-58
2022/07/18 00:35:28;;;;;;;2.95;2.60;;;;;;;24.35;37.79;99901.50;5071907;28;20680;-58
2022/07/18 00:37:55;;;;;;;3.38;2.30;;;;;;;24.31;37.80;99902.69;5071985;28;20210;-55
2022/07/18 00:40:22;;;;;;;2.40;2.20;;;;;;;24.26;37.91;99902.22;5072193;28;20200;-55
2022/07/18 00:42:49;;;;;;;6.05;2.50;;;;;;;24.23;37.32;99902.47;5071875;28;20200;-58
2022/07/18 00:45:17;;;;;;;5.00;2.35;;;;;;;24.20;37.42;99898.22;5072035;28;20192;-59
2022/07/18 00:47:44;;;;;;;5.15;2.63;;;;;;;24.19;36.60;99906.28;5071911;28;20195;-58
2022/07/18 00:50:11;;;;;;;3.25;2.08;;;;;;;24.15;36.62;99905.66;5071761;28;20196;-58
2022/07/18 00:52:39;;;;;;;3.40;2.80;;;;;;;24.07;36.08;99902.78;5072045;28;20591;-57
2022/07/18 00:55:07;;;;;;;5.93;2.30;;;;;;;24.11;35.83;99912.19;5072104;28;20223;-55
2022/07/18 00:57:34;;;;;;;3.33;2.20;;;;;;;24.14;35.05;99919.94;5071636;28;20196;-57
2022/07/18 01:02:46;;;;;;;3.50;1.98;;;;;;;24.01;35.06;99913.03;5071375;28;20203;-57
2022/07/18 01:05:13;;;;;;;5.20;2.10;;;;;;;23.96;35.29;99918.69;5071800;28;20192;-58
2022/07/18 01:07:40;;;;;;;3.05;2.10;;;;;;;23.88;35.23;99924.59;5071447;28;20199;-59
2022/07/18 01:10:08;;;;;;;4.30;1.95;;;;;;;23.89;34.98;99921.00;5071717;28;20657;-57
2022/07/18 01:12:35;;;;;;;2.90;2.10;;;;;;;23.84;35.33;99928.44;5071520;28;20613;-58
2022/07/18 01:15:03;;;;;;;1.88;1.77;;;;;;;23.80;34.98;99927.00;5071135;28;20224;-58
2022/07/18 01:17:30;;;;;;;5.60;2.05;;;;;;;23.77;35.15;99919.28;5071206;28;20318;-57
2022/07/18 01:19:59;;;;;;;2.75;2.10;;;;;;;23.69;34.91;99919.03;5071183;28;20207;-57
2022/07/18 01:22:27;;;;;;;1.98;1.90;;;;;;;23.68;35.02;99925.28;5071402;28;20286;-57
2022/07/18 01:24:54;;;;;;;1.90;1.80;;;;;;;23.73;35.08;99925.78;5071199;28;20196;-58
2022/07/18 01:27:22;;;;;;;2.47;1.80;;;;;;;23.61;35.22;99910.81;5071044;28;20203;-58
2022/07/18 01:29:51;;;;;;;2.22;2.10;;;;;;;23.49;35.72;99922.31;5070851;28;20199;-58
2022/07/18 01:32:18;;;;;;;2.10;2.00;;;;;;;23.45;35.86;99927.00;5071167;28;20200;-55
2022/07/18 01:34:47;;;;;;;2.28;2.08;;;;;;;23.36;35.94;99921.56;5070942;28;20228;-54
2022/07/18 01:37:15;;;;;;;2.10;2.00;;;;;;;23.35;36.30;99923.38;5071158;28;20207;-54
2022/07/18 01:39:44;;;;;;;2.85;1.98;;;;;;;23.30;36.33;99924.66;5069691;28;20202;-54
2022/07/18 01:42:12;;;;;;;1.98;1.85;;;;;;;23.34;36.31;99928.78;5070864;28;20586;-57
2022/07/18 01:44:40;;;;;;;2.72;1.92;;;;;;;23.26;36.29;99921.38;5070692;28;20202;-58
2022/07/18 01:47:09;;;;;;;2.58;1.95;;;;;;;23.20;36.41;99921.00;5070959;28;20199;-54
2022/07/18 01:49:36;;;;;;;3.08;2.25;;;;;;;23.19;36.44;99925.47;5070551;28;20195;-53
2022/07/18 01:52:05;;;;;;;1.92;1.83;;;;;;;23.19;36.65;99922.81;5070788;28;20283;-54
2022/07/18 01:54:34;;;;;;;4.07;2.30;;;;;;;23.15;36.89;99924.81;5070370;28;20196;-52
2022/07/18 01:57:04;;;;;;;2.22;2.13;;;;;;;23.15;37.15;99929.28;5070357;28;20202;-53
2022/07/18 01:59:31;;;;;;;2.97;2.20;;;;;;;23.10;37.55;99924.34;5070828;28;20731;-55
2022/07/18 02:01:58;;;;;;;6.40;2.42;;;;;;;23.08;38.02;99920.97;5070509;28;20566;-54
2022/07/18 02:04:59;;;;;;;2.35;2.25;;;;;;;23.07;37.99;99921.91;5070269;28;20199;-54
2022/07/18 02:07:13;;;;;;;2.75;2.55;;;;;;;23.04;37.75;99922.13;5070112;28;20200;-56
2022/07/18 02:09:40;;;;;;;3.80;3.60;;;;;;;23.07;37.64;99932.50;5070010;28;20340;-54
2022/07/18 02:12:08;;;;;;;5.22;4.00;;;;;;;23.05;38.07;99929.13;5070247;28;20195;-54
2022/07/18 02:14:35;;;;;;;4.50;4.10;;;;;;;23.00;38.10;99925.13;5070003;28;20206;-54
2022/07/18 02:17:02;;;;;;;4.30;3.92;;;;;;;22.95;38.28;99933.41;5070025;28;20288;-55
2022/07/18 02:19:29;;;;;;;4.13;3.72;;;;;;;22.85;38.37;99940.31;5069904;28;20192;-54
2022/07/18 02:21:56;;;;;;;6.43;3.22;;;;;;;22.80;38.69;99934.50;5069961;28;20199;-54
2022/07/18 02:24:23;;;;;;;3.63;3.10;;;;;;;22.75;39.14;99941.94;5070262;28;20196;-54
2022/07/18 02:26:50;;;;;;;3.15;2.85;;;;;;;22.68;39.19;99945.97;5070096;28;20561;-54
2022/07/18 02:29:18;;;;;;;2.67;2.58;;;;;;;22.68;39.72;99945.97;5069881;28;20196;-55
2022/07/18 02:31:45;;;;;;;3.15;2.47;;;;;;;22.67;39.70;99944.28;5069822;28;20195;-55
2022/07/18 02:34:12;;;;;;;5.78;3.00;;;;;;;22.60;40.29;99943.84;5069607;28;20206;-54
2022/07/18 02:36:39;;;;;;;3.85;2.70;;;;;;;22.57;40.62;99949.41;5069667;28;20224;-55
2022/07/18 02:39:07;;;;;;;2.75;2.55;;;;;;;22.57;40.99;99954.69;5069762;28;20255;-55
2022/07/18 02:41:35;;;;;;;2.70;2.33;;;;;;;22.57;40.93;99943.25;5069689;28;20639;-58
2022/07/18 02:44:03;;;;;;;3.42;2.70;;;;;;;22.50;40.80;99942.84;5069553;28;20196;-58
2022/07/18 02:46:31;;;;;;;4.10;2.88;;;;;;;22.60;40.97;99956.25;5069571;28;20199;-58
2022/07/18 02:48:58;;;;;;;3.17;2.50;;;;;;;22.54;41.22;99956.69;5069669;28;20569;-57
2022/07/18 02:51:25;;;;;;;2.83;2.60;;;;;;;22.56;40.90;99962.72;5069131;28;20199;-57
2022/07/18 02:53:53;;;;;;;4.35;2.65;;;;;;;22.50;40.98;99957.84;5069563;28;20274;-57
2022/07/18 02:56:20;;;;;;;3.55;2.50;;;;;;;22.46;41.03;99960.72;5069570;28;20238;-58
2022/07/18 02:58:47;;;;;;;2.65;2.42;;;;;;;22.42;41.20;99959.25;5069585;28;20204;-58
2022/07/18 03:01:13;;;;;;;3.55;2.53;;;;;;;22.42;41.13;99958.41;5069676;28;20206;-57
2022/07/18 03:03:42;;;;;;;4.72;2.60;;;;;;;22.42;41.30;99951.31;5069056;28;20206;-57
2022/07/18 03:06:09;;;;;;;2.67;2.20;;;;;;;22.40;41.21;99950.59;5069574;28;20200;-58
2022/07/18 03:08:36;;;;;;;3.20;3.00;;;;;;;22.45;40.91;99960.84;5069053;28;20231;-58
2022/07/18 03:11:03;;;;;;;2.90;2.70;;;;;;;22.50;40.98;99958.69;5069467;28;20206;-57
2022/07/18 03:13:30;;;;;;;3.75;3.35;;;;;;;22.48;40.80;99957.13;5060119;28;20230;-54
2022/07/18 03:15:57;;;;;;;3.85;3.55;;;;;;;22.47;40.78;99950.97;5048337;28;20232;-54
2022/07/18 03:18:25;;;;;;;4.63;3.47;;;;;;;22.52;40.45;99950.66;5049041;28;20235;-53
2022/07/18 03:20:54;;;;;;;8.55;7.90;;;;;;;22.57;40.57;99956.47;5049006;28;20221;-54
2022/07/18 03:23:21;;;;;;;7.53;6.82;;;;;;;22.65;40.13;99954.13;5049287;28;20274;-54
2022/07/18 03:25:48;;;;;;;2.85;2.65;;;;;;;22.69;39.24;99955.56;5048929;28;20243;-54
2022/07/18 03:28:15;;;;;;;8.65;4.45;;;;;;;22.70;39.40;99958.13;5048991;28;20708;-58
2022/07/18 03:30:42;;;;;;;2.95;2.65;;;;;;;22.75;39.11;99965.75;5048148;28;20605;-58
2022/07/18 03:33:09;;;;;;;2.75;2.55;;;;;;;22.78;38.80;99963.75;5061697;28;20223;-58
2022/07/18 03:35:36;;;;;;;4.47;3.05;;;;;;;22.83;38.54;99963.41;5068526;28;20315;-58
2022/07/18 03:38:05;;;;;;;7.95;2.33;;;;;;;22.89;38.43;99972.72;5067441;28;20258;-59
2022/07/18 03:40:32;;;;;;;9.20;5.70;;;;;;;22.98;38.70;99972.91;5067308;28;20694;-57
2022/07/18 03:42:59;;;;;;;7.75;5.18;;;;;;;23.05;37.93;99968.84;5067085;28;20718;-57
2022/07/18 03:45:26;;;;;;;4.97;3.13;;;;;;;23.12;37.82;99974.53;5067161;28;20211;-58
2022/07/18 03:47:55;;;;;;;8.23;3.20;;;;;;;23.24;37.35;99980.75;5067747;28;20211;-58
2022/07/18 03:50:22;;;;;;;2.35;2.25;;;;;;;23.37;37.50;99978.84;5067536;28;20775;-58
2022/07/18 03:52:48;;;;;;;4.85;3.95;;;;;;;23.44;36.97;99974.81;5067686;28;20329;-58
2022/07/18 03:55:17;;;;;;;3.28;2.90;;;;;;;23.58;36.62;99979.97;5067344;28;20220;-58
2022/07/18 03:57:44;;;;;;;3.17;2.50;;;;;;;24.02;36.07;99979.22;5064928;28;20216;-58
2022/07/18 04:00:11;;;;;;;4.78;2.90;;;;;;;25.52;33.79;99991.97;5067130;28;20200;-58
2022/07/18 04:02:39;;;;;;;2.80;2.70;;;;;;;27.47;30.58;99997.09;5066746;28;20565;-58
2022/07/18 04:05:07;;;;;;;2.55;2.35;;;;;;;29.14;28.54;99996.34;5069282;28;20216;-58
2022/07/18 04:07:34;;;;;;;3.85;2.88;;;;;;;30.90;26.12;100002.34;5071523;28;20206;-58
2022/07/18 04:10:02;;;;;;;2.45;2.22;;;;;;;32.26;24.60;100009.03;5069805;28;20218;-58
2022/07/18 04:12:30;;;;;;;3.67;2.50;;;;;;;32.96;23.83;100007.28;5067960;28;20794;-59
2022/07/18 04:14:57;;;;;;;4.45;2.88;;;;;;;33.78;22.79;100013.84;5054634;28;20217;-58
2022/07/18 04:17:24;;;;;;;22.90;6.88;;;;;;;34.83;21.65;100011.91;5070954;28;20255;-58
2022/07/18 04:19:51;;;;;;;2.80;2.15;;;;;;;35.85;20.87;100009.91;5071068;28;20226;-59
2022/07/18 04:22:18;;;;;;;8.00;4.30;;;;;;;36.35;20.34;100014.25;5071372;28;20220;-59
2022/07/18 04:24:45;;;;;;;5.18;2.80;;;;;;;36.67;19.92;100023.59;5066378;28;20223;-59
2022/07/18 04:27:12;;;;;;;4.35;2.15;;;;;;;36.59;19.80;100031.00;5070978;28;20220;-59
2022/07/18 04:29:42;;;;;;;9.45;3.70;;;;;;;37.17;19.73;100024.25;5070082;28;20223;-57
2022/07/18 04:32:09;;;;;;;12.80;3.05;;;;;;;36.62;19.43;100030.63;5067861;28;20213;-58
2022/07/18 04:34:36;;;;;;;6.15;2.70;;;;;;;37.15;18.79;100031.69;5070298;28;20223;-58
2022/07/18 04:37:03;;;;;;;2.45;2.25;;;;;;;37.67;19.04;100036.47;5063775;28;20228;-58
2022/07/18 04:39:30;;;;;;;4.90;2.30;;;;;;;38.53;18.32;100041.84;5063880;28;20743;-58
2022/07/18 04:41:56;;;;;;;7.95;2.35;;;;;;;39.10;17.92;100041.03;5050069;28;20233;-59
2022/07/18 04:44:23;;;;;;;3.20;1.80;;;;;;;40.17;16.76;100058.31;5055860;28;20215;-59
2022/07/18 04:46:52;;;;;;;15.57;2.83;;;;;;;39.19;17.39;100047.03;5070842;28;20321;-59
2022/07/18 04:49:19;;;;;;;3.17;2.20;;;;;;;39.28;17.21;100062.03;5070501;28;20660;-59
2022/07/18 04:51:45;;;;;;;5.10;2.13;;;;;;;40.15;16.99;100068.59;5064965;28;20299;-59
2022/07/18 06:41:29;;;;;;;8.65;2.65;;;;;;;38.11;18.69;100060.28;5107093;27;20538;-56
2022/07/18 06:43:56;;;;;;;3.35;2.30;;;;;;;38.10;18.31;100057.75;5088703;28;20210;-57
2022/07/18 06:46:23;;;;;;;3.92;2.10;;;;;;;37.91;18.09;100058.56;5075101;28;20683;-57
2022/07/18 06:48:50;;;;;;;3.65;2.30;;;;;;;38.00;18.43;100060.88;5075212;28;20217;-58
2022/07/18 06:51:17;;;;;;;5.38;2.50;;;;;;;37.56;18.38;100066.84;5086829;28;20195;-58
2022/07/18 06:53:44;;;;;;;3.97;2.60;;;;;;;37.26;19.01;100066.34;5087036;28;20282;-58
2022/07/18 06:56:11;;;;;;;4.93;2.90;;;;;;;37.52;18.81;100053.91;5087023;28;20195;-58
2022/07/18 06:58:39;;;;;;;9.48;3.03;;;;;;;37.22;19.08;100058.84;5086796;28;20202;-58
2022/07/18 07:01:06;;;;;;;2.78;2.33;;;;;;;37.29;19.23;100063.22;5086834;28;20197;-54
2022/07/18 07:03:33;;;;;;;6.60;2.72;;;;;;;37.22;18.68;100062.38;5082012;28;20204;-58
2022/07/18 07:06:00;;;;;;;7.45;2.22;;;;;;;37.59;19.00;100055.56;5096498;28;20230;-55
2022/07/18 07:08:27;;;;;;;3.90;2.15;;;;;;;37.99;18.44;100058.34;5093677;27;20628;-55
2022/07/18 07:10:54;;;;;;;3.40;2.08;;;;;;;37.62;18.38;100059.78;5093275;28;20232;-57
2022/07/18 07:13:21;;;;;;;4.18;3.70;;;;;;;37.41;18.42;100066.19;5095934;28;20307;-54
2022/07/18 07:15:49;;;;;;;3.53;2.47;;;;;;;37.09;18.50;100059.59;5086270;28;20195;-54
2022/07/18 07:18:16;;;;;;;5.30;3.25;;;;;;;36.90;18.93;100055.78;5086211;28;20201;-55
2022/07/18 07:20:43;;;;;;;10.60;5.18;;;;;;;36.88;18.89;100057.00;5086140;28;20197;-55
2022/07/18 07:23:10;;;;;;;13.82;3.00;;;;;;;36.81;19.51;100050.72;5086317;28;20291;-55
2022/07/18 07:25:38;;;;;;;3.28;2.80;;;;;;;36.86;19.56;100034.72;5086141;28;20586;-55
2022/07/18 07:28:06;;;;;;;7.05;3.08;;;;;;;37.21;19.10;100054.47;5068491;28;20210;-54
2022/07/18 07:30:34;;;;;;;6.40;3.50;;;;;;;36.83;18.69;100049.50;5070545;28;20251;-57
2022/07/18 07:33:03;;;;;;;5.10;3.05;;;;;;;36.59;19.45;100050.78;5065471;28;20188;-58
2022/07/18 07:35:30;;;;;;;6.60;2.00;;;;;;;37.00;19.11;100050.81;5065519;28;20196;-57
2022/07/18 07:37:58;;;;;;;2.97;1.90;;;;;;;36.73;18.99;100049.88;5065392;28;20207;-57
2022/07/18 07:40:27;;;;;;;2.95;2.08;;;;;;;36.72;18.94;100045.47;5074948;28;20241;-56
2022/07/18 07:43:06;;;;;;;2.50;2.30;;;;;;;36.82;20.26;100042.41;5072052;28;20192;-56
2022/07/18 07:45:33;;;;;;;3.75;1.90;;;;;;;37.46;20.19;100030.38;5072150;28;20192;-57
2022/07/18 07:48:02;;;;;;;8.75;2.33;;;;;;;37.36;20.29;100038.91;5071937;28;20203;-58
2022/07/18 07:50:29;;;;;;;4.13;1.90;;;;;;;37.39;18.79;100038.47;5072060;28;20620;-57
2022/07/18 07:52:56;;;;;;;1.98;1.83;;;;;;;37.46;19.49;100035.78;5071946;28;20196;-56
2022/07/18 08:14:02;;;;;;;1.98;1.88;;;;;;;39.19;16.47;100057.91;5148472;27;20543;-63
2022/07/18 08:16:29;;;;;;;1.50;1.40;;;;;;;39.35;15.10;100067.44;5147516;27;20283;-62
2022/07/18 08:18:56;;;;;;;1.33;1.33;;;;;;;39.05;15.41;100061.75;5125700;27;20221;-63
2022/07/18 08:21:23;;;;;;;2.67;1.77;;;;;;;38.75;15.81;100045.97;5126907;27;20229;-63
2022/07/18 08:23:50;;;;;;;2.00;1.70;;;;;;;38.86;15.74;100037.16;5126967;28;20774;-65
2022/07/18 08:26:17;;;;;;;2.25;1.80;;;;;;;38.41;15.95;100052.50;5126778;27;20300;-61
2022/07/18 08:28:43;;;;;;;3.92;1.65;;;;;;;38.30;16.61;100046.88;5126925;28;20741;-61
2022/07/18 08:31:12;;;;;;;1.88;1.77;;;;;;;39.02;15.99;100051.31;5126523;28;20229;-63
2022/07/18 08:33:39;;;;;;;3.40;1.80;;;;;;;38.96;15.69;100052.13;5127537;28;20197;-63
2022/07/18 08:36:07;;;;;;;4.32;1.83;;;;;;;38.57;15.77;100047.69;5126620;28;20704;-63
2022/07/18 08:38:34;;;;;;;1.70;1.55;;;;;;;38.18;16.00;100043.13;5126994;28;20221;-62
2022/07/18 08:41:02;;;;;;;6.15;2.05;;;;;;;37.48;17.17;100031.81;5127146;27;20201;-63
2022/07/18 08:43:29;;;;;;;7.97;1.75;;;;;;;37.06;17.58;100028.34;5127046;28;20225;-62
2022/07/18 08:45:57;;;;;;;2.00;1.90;;;;;;;36.60;17.77;100038.94;5126934;28;20202;-63
2022/07/18 08:48:26;;;;;;;3.35;2.10;;;;;;;35.82;18.40;100023.81;5126997;28;20293;-63
2022/07/18 08:50:53;;;;;;;2.95;2.08;;;;;;;35.48;19.34;100037.16;5119919;27;20213;-60
2022/07/18 08:53:20;;;;;;;2.65;2.45;;;;;;;35.37;19.42;100051.16;5126734;28;20198;-63
2022/07/18 08:55:49;;;;;;;2.40;2.20;;;;;;;34.82;19.58;100044.47;5125929;28;20208;-62
2022/07/18 08:58:17;;;;;;;3.30;2.20;;;;;;;34.88;19.82;100047.25;5127025;28;20694;-62
2022/07/18 09:00:45;;;;;;;2.97;2.00;;;;;;;34.20;20.12;100042.09;5126747;28;20229;-62
2022/07/18 09:03:12;;;;;;;3.83;2.20;;;;;;;34.11;19.88;100044.00;5126405;28;20232;-62
2022/07/18 09:05:41;;;;;;;3.03;1.88;;;;;;;34.17;20.36;100037.06;5126362;27;20194;-62
2022/07/18 09:08:10;;;;;;;2.05;1.88;;;;;;;34.22;19.58;100040.03;5126704;28;20268;-59
2022/07/18 09:10:50;;;;;;;2.65;2.17;;;;;;;34.46;20.24;100031.72;5126527;28;20198;-59
2022/07/18 09:13:17;;;;;;;3.95;2.28;;;;;;;34.46;20.76;100036.28;5122313;28;20226;-60
2022/07/18 09:15:59;;;;;;;3.08;2.25;;;;;;;34.01;21.65;100029.13;5112849;28;20277;-60
2022/07/18 09:18:30;;;;;;;2.50;2.22;;;;;;;34.10;21.04;100030.72;5110061;28;20201;-62
2022/07/18 09:21:03;;;;;;;6.05;2.20;;;;;;;34.45;20.92;100035.44;5111640;28;20285;-63
2022/07/18 09:23:31;;;;;;;3.22;2.38;;;;;;;34.74;21.18;100031.91;5112747;28;20605;-63
2022/07/18 09:25:59;;;;;;;5.03;2.85;;;;;;;34.62;20.94;100025.31;5112906;28;20667;-63
2022/07/18 09:28:26;;;;;;;2.70;2.50;;;;;;;33.95;21.01;100027.16;5112932;28;20675;-64
2022/07/18 09:30:54;;;;;;;2.35;2.25;;;;;;;33.77;21.74;100033.69;5112580;28;20196;-61
2022/07/18 09:33:21;;;;;;;2.85;2.35;;;;;;;32.87;22.04;100031.69;5112964;28;20222;-60
2022/07/18 09:35:50;;;;;;;2.20;2.00;;;;;;;32.74;22.14;100026.88;5112897;28;20194;-62
2022/07/18 09:38:20;;;;;;;3.00;2.53;;;;;;;33.09;22.05;100036.28;5112331;28;20285;-62
2022/07/18 09:40:49;;;;;;;3.15;2.90;;;;;;;33.12;21.89;100023.34;5112508;28;20195;-62
2022/07/18 09:43:17;;;;;;;2.53;2.00;;;;;;;33.29;21.58;100025.97;5112083;28;20233;-63
2022/07/18 09:45:47;;;;;;;2.40;2.13;;;;;;;33.24;21.51;100039.94;5112541;28;20202;-63
2022/07/18 09:48:16;;;;;;;3.42;2.00;;;;;;;33.38;21.19;100019.53;5112362;28;20198;-63
2022/07/18 09:50:51;;;;;;;3.00;2.10;;;;;;;33.60;21.21;100024.06;5112321;28;20651;-62
2022/07/18 09:53:23;;;;;;;2.45;2.22;;;;;;;33.93;20.95;100021.13;5112130;28;20576;-61
2022/07/18 09:55:51;;;;;;;2.03;1.92;;;;;;;33.78;21.16;100007.63;5112289;28;20234;-64
2022/07/18 09:58:20;;;;;;;5.40;2.80;;;;;;;34.15;20.93;100017.53;5112019;28;20195;-61
2022/07/18 10:00:47;;;;;;;2.20;2.10;;;;;;;34.77;20.29;100025.31;5112330;28;20611;-62
2022/07/18 10:03:15;;;;;;;4.97;1.80;;;;;;;34.64;20.82;100019.72;5111912;28;20226;-62
2022/07/18 10:05:44;;;;;;;4.78;2.63;;;;;;;34.02;20.76;100014.63;5112131;28;20194;-63
2022/07/18 10:08:12;;;;;;;6.38;2.17;;;;;;;33.72;21.55;99994.84;5111769;28;20281;-62
2022/07/18 10:10:43;;;;;;;2.40;2.20;;;;;;;34.18;21.41;100009.09;5111850;28;20234;-63
2022/07/18 10:13:10;;;;;;;4.80;2.30;;;;;;;34.32;21.61;99997.50;5111862;28;20321;-62
2022/07/18 10:15:40;;;;;;;4.72;2.53;;;;;;;34.52;21.42;99995.94;5112004;28;20195;-62
2022/07/18 10:18:08;;;;;;;7.28;2.55;;;;;;;34.46;21.57;99988.59;5111875;28;20663;-62
2022/07/18 10:20:38;;;;;;;5.20;2.58;;;;;;;34.24;21.59;99995.72;5111757;28;20230;-62
2022/07/18 10:23:12;;;;;;;2.58;2.10;;;;;;;34.15;21.39;99995.97;5111620;28;20229;-62
2022/07/18 10:25:40;;;;;;;4.25;2.42;;;;;;;33.91;21.85;99982.75;5110747;28;20195;-63
2022/07/18 10:28:10;;;;;;;4.43;2.53;;;;;;;33.72;22.33;99990.31;5111882;28;20237;-63
2022/07/18 10:30:40;;;;;;;4.50;2.38;;;;;;;33.57;22.12;99986.72;5111584;28;20584;-63
2022/07/18 10:33:41;;;;;;;2.92;2.72;;;;;;;33.22;23.07;99977.38;5111256;28;20582;-63
2022/07/18 10:36:12;;;;;;;2.63;2.45;;;;;;;32.83;23.86;99968.53;5111586;28;20195;-63
2022/07/18 10:38:40;;;;;;;3.95;2.70;;;;;;;32.44;24.52;99972.03;5111410;28;20251;-62
2022/07/18 10:41:13;;;;;;;3.47;3.00;;;;;;;32.17;24.54;99957.13;5111421;28;20226;-60
2022/07/18 10:43:42;;;;;;;7.82;2.95;;;;;;;31.99;25.47;99951.16;5110980;28;20222;-60
2022/07/18 10:46:11;;;;;;;3.13;2.83;;;;;;;31.99;25.41;99965.41;5111641;28;20186;-60
2022/07/18 10:48:52;;;;;;;2.67;2.53;;;;;;;32.14;24.98;99975.47;5111152;28;20281;-63
2022/07/18 10:51:20;;;;;;;3.28;3.08;;;;;;;31.88;26.08;99970.28;5111085;28;20196;-63
2022/07/18 10:54:05;;;;;;;3.67;2.92;;;;;;;31.47;26.41;99929.22;5111093;28;20194;-63
2022/07/18 10:57:11;;;;;;;3.30;2.83;;;;;;;31.57;26.86;99965.59;5111307;28;20206;-62
2022/07/18 10:59:58;;;;;;;5.25;3.10;;;;;;;31.81;26.73;99962.09;5110896;28;20237;-62
2022/07/18 11:02:33;;;;;;;3.72;3.05;;;;;;;31.82;26.25;99952.19;5110727;28;20244;-63
2022/07/18 11:05:00;;;;;;;4.70;3.13;;;;;;;31.34;26.79;99951.16;5110829;28;20198;-63
2022/07/18 11:07:27;;;;;;;3.03;2.92;;;;;;;31.48;26.92;99955.03;5111025;27;20209;-63
2022/07/18 11:09:54;;;;;;;3.03;2.88;;;;;;;31.61;26.42;99950.81;5111019;28;20209;-63
2022/07/18 11:12:27;;;;;;;3.97;3.03;;;;;;;31.45;26.51;99942.78;5110635;28;20313;-61
2022/07/18 11:15:07;;;;;;;5.97;3.25;;;;;;;31.34;27.02;99937.75;5110707;28;20650;-61
2022/07/18 11:17:59;;;;;;;4.28;3.65;;;;;;;31.54;26.69;99944.47;5110975;27;20221;-61
2022/07/18 11:20:30;;;;;;;3.95;2.95;;;;;;;31.35;26.13;99917.97;5110626;28;20206;-61
2022/07/18 11:22:57;;;;;;;5.88;4.95;;;;;;;31.45;26.32;99932.06;5110685;28;20218;-61
2022/07/18 11:25:28;;;;;;;3.65;3.35;;;;;;;31.37;26.23;99929.38;5110318;28;20195;-60
2022/07/18 11:27:56;;;;;;;4.03;3.45;;;;;;;31.46;26.39;99941.78;5110952;28;20942;-62
2022/07/18 11:30:24;;;;;;;8.00;7.22;;;;;;;31.45;26.38;99933.91;5110600;28;20195;-61
2022/07/18 11:32:52;;;;;;;3.80;3.50;;;;;;;31.60;26.05;99930.38;5110450;28;20201;-60
2022/07/18 11:35:23;;;;;;;12.65;7.53;;;;;;;31.73;26.60;99921.81;5110357;28;20200;-60
2022/07/18 11:37:52;;;;;;;10.48;7.13;;;;;;;31.99;26.68;99929.66;5109562;28;20758;-63
2022/07/18 11:40:19;;;;;;;6.32;4.75;;;;;;;31.96;26.98;99919.25;5110264;27;20194;-63
2022/07/18 11:42:46;;;;;;;3.60;3.20;;;;;;;31.92;26.70;99912.56;5110201;28;20318;-63
2022/07/18 11:45:16;;;;;;;3.88;3.67;;;;;;;31.83;26.76;99930.53;5110100;28;20190;-61
2022/07/18 11:47:50;;;;;;;3.78;3.50;;;;;;;31.79;26.57;99923.84;5110210;28;20194;-61
2022/07/18 11:50:19;;;;;;;3.50;3.20;;;;;;;31.73;26.57;99909.25;5109950;28;20190;-61
2022/07/18 11:52:46;;;;;;;4.15;3.60;;;;;;;31.78;26.56;99886.44;5100147;28;20221;-61
2022/07/18 11:55:14;;;;;;;3.88;3.58;;;;;;;31.94;26.80;99902.50;5107324;28;20305;-61
2022/07/18 11:57:41;;;;;;;3.80;3.50;;;;;;;32.07;27.08;99905.47;5109863;28;20733;-61
2022/07/18 12:00:18;;;;;;;3.65;3.30;;;;;;;32.18;26.85;99904.28;5107964;27;20298;-61
2022/07/18 12:03:05;;;;;;;6.18;4.07;;;;;;;32.02;26.60;99902.47;5108883;28;20232;-61
2022/07/18 12:05:33;;;;;;;4.55;4.15;;;;;;;31.64;27.14;99894.16;5105834;28;20673;-62
2022/07/18 12:08:00;;;;;;;4.15;3.80;;;;;;;31.66;27.17;99894.84;5105243;28;20242;-61
2022/07/18 12:10:27;;;;;;;4.38;3.50;;;;;;;31.66;27.60;99897.53;5108128;27;20647;-61
2022/07/18 12:12:55;;;;;;;4.13;3.72;;;;;;;31.60;27.10;99898.19;5107813;28;20249;-64
2022/07/18 12:15:23;;;;;;;4.05;3.25;;;;;;;31.51;25.95;99899.16;5108720;27;20229;-64
2022/07/18 12:17:50;;;;;;;4.35;3.40;;;;;;;31.45;26.50;99899.88;5108248;28;20245;-64
2022/07/18 12:20:19;;;;;;;3.80;3.60;;;;;;;31.36;26.54;99876.72;5107846;27;20229;-67
2022/07/18 12:23:07;;;;;;;4.25;3.40;;;;;;;31.48;27.09;99882.59;5107456;28;20313;-64
2022/07/18 12:25:40;;;;;;;4.32;3.58;;;;;;;31.50;27.08;99876.03;5107984;27;20218;-60
2022/07/18 12:28:15;;;;;;;5.45;3.58;;;;;;;31.20;28.22;99871.38;5108510;28;20617;-62
2022/07/18 12:30:43;;;;;;;4.05;3.80;;;;;;;30.94;28.62;99875.00;5108505;27;20213;-60
2022/07/18 12:33:11;;;;;;;4.07;3.33;;;;;;;30.92;28.10;99852.91;5108520;28;21066;-60
2022/07/18 12:35:39;;;;;;;3.67;3.47;;;;;;;31.21;28.60;99870.38;5108501;27;20214;-60
2022/07/18 12:38:08;;;;;;;6.03;3.50;;;;;;;31.30;28.33;99866.66;5107736;28;20249;-61
2022/07/18 12:40:44;;;;;;;4.07;3.83;;;;;;;31.19;28.66;99869.69;5108060;27;20674;-61
2022/07/18 12:43:14;;;;;;;4.57;3.90;;;;;;;31.18;28.27;99865.31;5108375;28;20687;-62
2022/07/18 12:45:41;;;;;;;9.07;3.97;;;;;;;31.24;30.07;99853.94;5107704;28;20250;-62
2022/07/18 12:48:12;;;;;;;5.63;3.70;;;;;;;31.09;30.26;99855.59;5107832;28;20627;-62
2022/07/18 12:50:40;;;;;;;7.93;3.55;;;;;;;30.99;30.24;99856.59;5111799;27;20301;-63
2022/07/18 12:53:07;;;;;;;4.97;3.90;;;;;;;30.89;30.76;99849.72;5112107;28;20667;-63
2022/07/18 13:10:51;;;;;;;4.15;3.95;;;;;;;30.73;30.55;99847.84;5106307;27;20561;-59
2022/07/18 13:13:18;;;;;;;4.60;3.95;;;;;;;30.78;30.66;99842.00;5095716;28;20209;-59
2022/07/18 13:15:45;;;;;;;4.68;4.38;;;;;;;30.87;30.54;99832.94;5095107;28;20602;-58
2022/07/18 13:18:12;;;;;;;5.88;4.20;;;;;;;30.86;31.46;99824.06;5086516;28;20226;-59
2022/07/18 13:20:41;;;;;;;6.97;4.40;;;;;;;31.02;30.81;99825.94;5096677;28;20301;-59
2022/07/18 13:23:10;;;;;;;4.85;4.55;;;;;;;31.23;30.19;99828.13;5099029;28;20201;-59
2022/07/18 13:25:36;;;;;;;4.85;4.47;;;;;;;31.35;30.03;99824.09;5107062;28;20579;-59
2022/07/18 13:28:05;;;;;;;5.00;4.60;;;;;;;31.36;29.95;99826.59;5106964;28;20201;-59
2022/07/18 13:30:32;;;;;;;6.05;4.55;;;;;;;31.27;30.84;99834.81;5106939;28;20195;-59
2022/07/18 13:33:00;;;;;;;4.38;4.07;;;;;;;31.18;30.23;99838.50;5099293;28;20659;-59
2022/07/18 13:35:27;;;;;;;4.40;4.10;;;;;;;31.16;30.40;99835.16;5096218;28;20268;-59
2022/07/18 13:37:53;;;;;;;4.88;4.53;;;;;;;31.12;30.62;99823.09;5094927;28;20199;-54
2022/07/18 13:40:20;;;;;;;4.70;4.40;;;;;;;31.16;30.82;99827.94;5096786;28;20311;-54
2022/07/18 13:42:47;;;;;;;4.90;4.60;;;;;;;31.23;30.97;99826.28;5096195;28;20192;-54
2022/07/18 13:45:16;;;;;;;5.28;4.55;;;;;;;31.19;31.00;99835.66;5100518;28;20197;-55
2022/07/18 13:47:43;;;;;;;5.20;4.90;;;;;;;31.14;30.95;99829.13;5099794;28;20195;-55
2022/07/18 13:50:10;;;;;;;5.53;5.10;;;;;;;31.13;31.03;99827.47;5095353;28;20684;-55
2022/07/18 13:52:37;;;;;;;4.97;4.68;;;;;;;31.20;30.98;99826.59;5096861;28;20209;-54
2022/07/18 13:55:05;;;;;;;8.93;5.13;;;;;;;31.15;31.00;99828.97;5095041;28;20287;-54
2022/07/18 13:57:32;;;;;;;5.47;5.07;;;;;;;31.11;30.91;99824.09;5095581;28;20618;-56
2022/07/18 13:59:59;;;;;;;5.18;4.68;;;;;;;31.08;31.34;99817.19;5088898;28;20254;-60